Time;durP1;ratioP1;P1;durP2;ratioP2;P2;SDS_P1;SDS_P2;PMS_P1;PMS_P2;Temp;Humidity;BMP_temperature;BMP_pressure;BME280_temperature;BME280_humidity;BME280_pressure;Samples;Min_cycle;Max_cycle;Signal;HPM_P1;HPM_P2
2022/10/04 00:02:56;;;;;;;4.15;1.58;;;10.60;99.90;;;;;;6092827;29;20276;-66
2022/10/04 00:06:03;;;;;;;2.25;1.88;;;10.60;99.90;;;;;;6092662;29;20300;-66
2022/10/04 00:09:13;;;;;;;2.05;1.88;;;10.60;99.90;;;;;;6092265;29;20269;-67
2022/10/04 00:12:21;;;;;;;1.33;1.33;;;10.60;99.90;;;;;;6114880;29;20287;-66
2022/10/04 00:15:30;;;;;;;3.00;1.90;;;10.50;99.90;;;;;;6116271;28;20308;-66
2022/10/04 00:18:41;;;;;;;1.88;1.77;;;10.50;99.90;;;;;;6116684;29;20272;-66
2022/10/04 00:22:29;;;;;;;2.45;1.73;;;10.40;99.90;;;;;;6115983;29;20624;-66
2022/10/04 00:25:36;;;;;;;1.50;1.50;;;10.40;99.90;;;;;;6102555;29;20304;-67
2022/10/04 00:28:46;;;;;;;1.40;1.40;;;10.30;99.90;;;;;;6117434;29;20287;-66
2022/10/04 00:32:27;;;;;;;1.73;1.50;;;10.30;99.90;;;;;;6120230;29;20308;-66
2022/10/04 00:35:50;;;;;;;1.52;1.50;;;10.30;99.90;;;;;;6120426;29;20698;-66
2022/10/04 00:39:15;;;;;;;1.67;1.55;;;10.20;99.90;;;;;;6120687;29;20272;-66
2022/10/04 00:42:42;;;;;;;1.42;1.42;;;10.30;99.90;;;;;;6119599;29;20276;-67
2022/10/04 00:45:52;;;;;;;3.90;1.55;;;10.30;99.90;;;;;;6119678;29;20307;-66
2022/10/04 00:49:01;;;;;;;1.42;1.30;;;10.20;99.90;;;;;;6119525;29;20272;-67
2022/10/04 00:52:12;;;;;;;1.50;1.50;;;10.20;99.90;;;;;;6119381;29;20296;-67
2022/10/04 00:55:26;;;;;;;1.55;1.30;;;10.10;99.90;;;;;;6119198;29;20516;-67
2022/10/04 00:58:36;;;;;;;4.15;1.55;;;10.10;99.90;;;;;;6120142;29;20275;-67
2022/10/04 01:01:44;;;;;;;2.38;2.28;;;10.10;99.90;;;;;;6119828;29;20304;-66
2022/10/04 01:05:19;;;;;;;2.20;1.30;;;10.10;99.90;;;;;;6372583;23;20307;31
2022/10/04 01:09:37;;;;;;;1.58;1.58;;;10.10;99.90;;;;;;6032856;29;20287;-66
2022/10/04 01:12:49;;;;;;;1.45;1.35;;;10.10;99.90;;;;;;6044158;29;20294;-67
2022/10/04 01:15:57;;;;;;;1.52;1.42;;;10.10;99.90;;;;;;6040497;29;20586;-66
2022/10/04 01:19:30;;;;;;;1.50;1.40;;;10.10;99.90;;;;;;6026920;29;20528;-66
2022/10/04 01:22:40;;;;;;;1.67;1.50;;;10.10;99.90;;;;;;6025748;29;20278;-67
2022/10/04 01:25:48;;;;;;;1.65;1.30;;;10.00;99.90;;;;;;6045488;29;20314;-66
2022/10/04 01:28:52;;;;;;;2.78;1.65;;;9.90;99.90;;;;;;6049819;29;20282;-67
2022/10/04 01:31:59;;;;;;;2.58;1.65;;;9.80;99.90;;;;;;6049160;29;20303;-66
2022/10/04 01:35:06;;;;;;;3.55;1.20;;;9.80;99.90;;;;;;6049022;29;20590;-65
2022/10/04 01:38:14;;;;;;;1.70;1.35;;;9.90;99.90;;;;;;6049076;29;20294;-66
2022/10/04 01:41:28;;;;;;;2.17;1.40;;;9.90;99.90;;;;;;6055386;29;20307;-66
2022/10/04 01:44:38;;;;;;;1.42;1.33;;;10.00;99.90;;;;;;6025738;29;20302;-67
2022/10/04 01:47:48;;;;;;;1.20;1.20;;;10.00;99.90;;;;;;6026771;29;20587;-67
2022/10/04 01:50:58;;;;;;;1.60;1.50;;;9.80;99.90;;;;;;6025809;29;20299;-67
2022/10/04 01:54:09;;;;;;;3.35;1.70;;;9.80;99.90;;;;;;6025843;29;20298;-67
2022/10/04 01:57:17;;;;;;;2.50;1.40;;;9.80;99.90;;;;;;6026118;29;20271;-66
2022/10/04 02:00:23;;;;;;;3.78;1.30;;;9.70;99.90;;;;;;6025733;29;20298;-66
2022/10/04 02:03:32;;;;;;;1.33;1.23;;;9.70;99.90;;;;;;6025713;29;20286;-66
2022/10/04 02:06:42;;;;;;;2.28;1.20;;;9.70;99.90;;;;;;6025442;29;20610;-67
2022/10/04 02:09:54;;;;;;;1.20;1.17;;;9.70;99.90;;;;;;6025159;29;20303;-66
2022/10/04 02:13:00;;;;;;;1.30;1.20;;;9.70;99.90;;;;;;6025609;29;20598;-66
2022/10/04 02:16:09;;;;;;;1.80;1.30;;;9.60;99.90;;;;;;6037752;29;20302;-66
2022/10/04 02:19:16;;;;;;;1.40;1.30;;;9.50;99.90;;;;;;6047837;29;20270;-67
2022/10/04 02:22:20;;;;;;;2.47;1.35;;;9.40;99.90;;;;;;6048392;29;20282;-67
2022/10/04 02:25:27;;;;;;;1.10;1.10;;;9.50;99.90;;;;;;6047924;29;20301;-66
2022/10/04 02:28:33;;;;;;;1.77;1.30;;;9.60;99.90;;;;;;6048160;29;20269;-66
2022/10/04 02:35:02;;;;;;;1.27;1.27;;;9.60;99.90;;;;;;6048006;29;20294;-66
2022/10/04 02:38:13;;;;;;;1.45;1.40;;;9.60;99.90;;;;;;6047890;29;20441;-66
2022/10/04 02:41:25;;;;;;;2.45;1.10;;;9.50;99.90;;;;;;6047860;29;20298;-66
2022/10/04 02:44:33;;;;;;;4.70;1.48;;;9.50;99.90;;;;;;6047883;29;20346;-66
2022/10/04 02:47:44;;;;;;;2.83;1.45;;;9.50;99.90;;;;;;6048285;29;20283;-67
2022/10/04 02:50:52;;;;;;;1.10;1.10;;;9.30;99.90;;;;;;6047118;29;20298;-66
2022/10/04 02:54:04;;;;;;;5.05;1.00;;;9.30;99.90;;;;;;6048105;29;20593;-67
2022/10/04 02:57:16;;;;;;;1.10;1.10;;;9.30;99.90;;;;;;6047204;29;20519;-66
2022/10/04 03:00:25;;;;;;;5.05;1.30;;;9.30;99.90;;;;;;6045164;29;20301;-66
2022/10/04 03:03:33;;;;;;;1.27;1.23;;;9.40;99.90;;;;;;6028869;29;20306;-66
2022/10/04 03:06:38;;;;;;;1.65;1.27;;;9.40;99.90;;;;;;6038502;29;20299;-66
2022/10/04 03:09:43;;;;;;;1.23;1.20;;;9.40;99.90;;;;;;6024480;29;20492;-67
2022/10/04 03:12:52;;;;;;;2.92;1.30;;;9.40;99.90;;;;;;6024272;29;20461;-67
2022/10/04 03:15:57;;;;;;;1.48;1.13;;;9.30;99.90;;;;;;6025170;29;20279;-66
2022/10/04 03:19:02;;;;;;;2.10;1.15;;;9.30;99.90;;;;;;6030300;29;20297;-66
2022/10/04 03:22:10;;;;;;;2.90;1.20;;;9.40;99.90;;;;;;6046817;29;20278;-66
2022/10/04 03:25:20;;;;;;;1.23;1.23;;;9.30;99.90;;;;;;6047698;29;20278;-67
2022/10/04 03:28:28;;;;;;;2.03;1.23;;;9.20;99.90;;;;;;6046929;29;20338;-66
2022/10/04 03:31:34;;;;;;;3.15;1.65;;;9.30;99.90;;;;;;6047262;29;20277;-66
2022/10/04 03:34:40;;;;;;;3.22;1.13;;;9.20;99.90;;;;;;6046631;29;20305;-66
2022/10/04 03:37:45;;;;;;;1.30;1.20;;;9.20;99.90;;;;;;6028241;29;20318;-68
2022/10/04 03:40:53;;;;;;;1.20;1.20;;;9.20;99.90;;;;;;6024460;29;20276;-66
2022/10/04 03:44:00;;;;;;;1.73;1.15;;;9.20;99.90;;;;;;6024025;29;20305;-67
2022/10/04 03:47:10;;;;;;;1.55;1.35;;;9.10;99.90;;;;;;6023761;29;20275;-67
2022/10/04 03:50:19;;;;;;;2.70;1.25;;;9.10;99.90;;;;;;6024579;29;20274;-67
2022/10/04 03:53:31;;;;;;;5.53;1.40;;;9.00;99.90;;;;;;6023671;29;20491;-67
2022/10/04 03:56:37;;;;;;;1.90;1.50;;;9.00;99.90;;;;;;6024486;29;20567;-67
2022/10/04 03:59:43;;;;;;;1.55;1.10;;;9.10;99.90;;;;;;6023961;29;20594;-67
2022/10/04 04:02:52;;;;;;;1.98;1.10;;;9.10;99.90;;;;;;6024780;29;20302;-66
2022/10/04 04:05:59;;;;;;;1.23;1.23;;;9.10;99.90;;;;;;6028647;29;20347;-66
2022/10/04 04:09:06;;;;;;;3.35;1.20;;;9.00;99.90;;;;;;6027910;29;20298;-67
2022/10/04 04:12:17;;;;;;;1.10;1.10;;;9.00;99.90;;;;;;6048672;29;21706;-66
2022/10/04 04:15:23;;;;;;;1.17;1.17;;;9.10;99.90;;;;;;6051120;29;20481;-67
2022/10/04 04:18:32;;;;;;;5.55;1.40;;;9.00;99.90;;;;;;6050972;29;20302;-67
2022/10/04 04:21:37;;;;;;;3.65;1.23;;;8.90;99.90;;;;;;6051030;29;20278;-67
2022/10/04 04:24:44;;;;;;;2.05;1.40;;;8.90;99.90;;;;;;6050938;29;20305;-67
2022/10/04 04:27:56;;;;;;;4.57;1.20;;;8.90;99.90;;;;;;6050779;29;20297;-66
2022/10/04 04:31:05;;;;;;;4.35;1.48;;;8.80;99.90;;;;;;6050777;29;20558;-66
2022/10/04 04:34:19;;;;;;;1.33;1.33;;;8.80;99.90;;;;;;6050542;29;20305;-66
2022/10/04 04:37:24;;;;;;;2.28;1.40;;;8.70;99.90;;;;;;6050354;29;20325;-68
2022/10/04 04:40:29;;;;;;;3.85;1.27;;;8.80;99.90;;;;;;6051136;29;20277;-67
2022/10/04 04:43:35;;;;;;;1.13;1.00;;;8.90;99.90;;;;;;6050422;29;20315;-67
2022/10/04 04:46:42;;;;;;;3.28;1.30;;;8.80;99.90;;;;;;6050393;29;20466;-68
2022/10/04 04:49:47;;;;;;;1.85;1.30;;;8.80;99.90;;;;;;6050415;29;20306;-67
2022/10/04 04:52:55;;;;;;;2.75;1.20;;;8.90;99.90;;;;;;6050370;29;20305;-67
2022/10/04 04:56:02;;;;;;;4.05;1.23;;;8.90;99.90;;;;;;6050549;29;20274;-68
2022/10/04 04:59:10;;;;;;;2.15;1.70;;;8.80;99.90;;;;;;6050007;29;20302;-67
2022/10/04 05:02:31;;;;;;;1.45;1.30;;;8.80;99.90;;;;;;6049854;29;20297;-67
2022/10/04 05:05:36;;;;;;;1.35;1.08;;;8.80;99.90;;;;;;6049850;29;20301;-66
2022/10/04 05:08:50;;;;;;;1.13;1.10;;;8.70;99.90;;;;;;6049882;29;20305;-67
2022/10/04 05:11:59;;;;;;;2.67;1.85;;;8.80;99.90;;;;;;6031152;29;20267;-66
2022/10/04 05:15:05;;;;;;;3.90;1.48;;;8.80;99.90;;;;;;6026599;29;20614;-67
2022/10/04 05:18:28;;;;;;;2.42;1.30;;;8.80;99.90;;;;;;6026427;29;20481;-67
2022/10/04 05:21:35;;;;;;;1.17;1.00;;;8.80;99.90;;;;;;6024159;29;20307;-66
2022/10/04 05:24:48;;;;;;;3.42;1.30;;;8.80;99.90;;;;;;6026924;29;20287;-67
2022/10/04 05:27:53;;;;;;;1.92;1.10;;;8.80;99.90;;;;;;6024651;29;20315;-67
2022/10/04 05:31:26;;;;;;;1.73;1.15;;;8.80;99.90;;;;;;6026990;29;20271;-67
2022/10/04 05:34:39;;;;;;;4.57;1.70;;;8.80;99.90;;;;;;6026215;29;20326;-66
2022/10/04 05:38:01;;;;;;;1.25;1.05;;;8.80;99.90;;;;;;6026002;29;20367;-67
2022/10/04 05:41:09;;;;;;;3.10;1.20;;;8.80;99.90;;;;;;6026466;29;20275;-67
2022/10/04 05:44:26;;;;;;;5.25;1.23;;;8.80;99.90;;;;;;6026187;29;20311;-67
2022/10/04 05:47:31;;;;;;;2.15;1.13;;;8.90;99.90;;;;;;6025763;29;20304;-67
2022/10/04 05:50:39;;;;;;;2.42;1.38;;;8.80;99.90;;;;;;6026038;29;20562;-67
2022/10/04 05:53:45;;;;;;;3.80;1.45;;;8.80;99.90;;;;;;6025926;29;20303;-67
2022/10/04 05:57:29;;;;;;;1.30;1.20;;;8.90;99.90;;;;;;6025733;29;20287;-67
2022/10/04 06:00:43;;;;;;;3.55;1.40;;;8.80;99.90;;;;;;6025990;29;20293;-67
2022/10/04 06:04:28;;;;;;;3.90;1.15;;;8.80;99.90;;;;;;6025706;29;20311;-66
2022/10/04 06:07:40;;;;;;;3.50;1.20;;;8.80;99.90;;;;;;6022745;29;20298;-67
2022/10/04 06:10:59;;;;;;;2.47;1.40;;;8.80;99.90;;;;;;6035865;29;20267;-67
2022/10/04 06:14:36;;;;;;;5.60;1.63;;;8.80;99.90;;;;;;6048255;29;20302;-67
2022/10/04 06:17:56;;;;;;;3.35;1.20;;;8.80;99.90;;;;;;6048201;29;20301;-67
2022/10/04 06:21:18;;;;;;;2.13;1.27;;;8.70;99.90;;;;;;6048087;29;20270;-67
2022/10/04 06:24:29;;;;;;;2.65;1.38;;;8.70;99.90;;;;;;6047576;29;20286;-67
2022/10/04 06:27:40;;;;;;;2.50;1.30;;;8.80;99.90;;;;;;6047568;29;20314;-67
2022/10/04 06:31:18;;;;;;;1.30;1.20;;;8.90;99.90;;;;;;6048629;29;20274;-67
2022/10/04 06:35:01;;;;;;;3.35;1.40;;;8.80;99.90;;;;;;6048098;29;20597;-68
2022/10/04 06:39:04;;;;;;;3.92;1.40;;;8.90;99.90;;;;;;6047910;29;20445;-67
2022/10/04 06:42:41;;;;;;;3.50;1.23;;;9.00;99.90;;;;;;6047481;29;20306;-68
2022/10/04 06:46:05;;;;;;;5.57;1.25;;;9.00;99.90;;;;;;6047861;29;20278;-68
2022/10/04 06:49:31;;;;;;;2.92;1.30;;;9.00;99.90;;;;;;6047858;29;20573;-68
2022/10/04 06:53:11;;;;;;;2.10;1.30;;;9.00;99.90;;;;;;6047437;29;20301;-67
2022/10/04 06:56:31;;;;;;;1.17;1.10;;;9.10;99.90;;;;;;6047789;29;20297;-67
2022/10/04 06:59:57;;;;;;;2.25;1.20;;;9.10;99.90;;;;;;6047479;29;20597;-67
2022/10/04 07:03:09;;;;;;;5.10;1.75;;;9.10;99.90;;;;;;6047453;29;20582;-67
2022/10/04 07:06:14;;;;;;;4.93;1.55;;;9.10;99.90;;;;;;6047629;29;20301;-67
2022/10/04 07:09:24;;;;;;;2.22;1.20;;;9.20;99.90;;;;;;6047530;29;20301;-67
2022/10/04 07:12:29;;;;;;;1.30;1.20;;;9.30;99.90;;;;;;6024356;29;20298;-67
2022/10/04 07:15:45;;;;;;;1.40;1.17;;;9.20;99.90;;;;;;6024425;29;20294;-67
2022/10/04 07:18:58;;;;;;;2.83;1.40;;;9.20;99.90;;;;;;6024065;29;20606;-67
2022/10/04 07:22:16;;;;;;;5.75;1.42;;;9.20;99.90;;;;;;6024209;29;20295;-67
2022/10/04 07:25:26;;;;;;;5.03;1.35;;;9.30;99.90;;;;;;6024583;29;20474;-67
2022/10/04 07:32:12;;;;;;;1.58;1.20;;;9.30;99.90;;;;;;6024091;29;20274;-67
2022/10/04 07:35:31;;;;;;;3.13;1.35;;;9.30;99.90;;;;;;6024605;29;20318;-66
2022/10/04 07:38:39;;;;;;;1.75;1.10;;;9.40;99.90;;;;;;6028252;29;20303;-66
2022/10/04 07:41:50;;;;;;;1.95;1.30;;;9.40;99.90;;;;;;6028638;29;20274;-67
2022/10/04 07:45:14;;;;;;;3.42;1.10;;;9.50;99.90;;;;;;6029176;29;20274;-66
2022/10/04 07:48:23;;;;;;;1.90;1.02;;;9.50;99.90;;;;;;6028434;29;20310;-66
2022/10/04 07:51:36;;;;;;;2.08;1.35;;;9.50;99.90;;;;;;6028649;29;20298;-66
2022/10/04 07:54:51;;;;;;;1.30;1.20;;;9.60;99.90;;;;;;6028428;29;20298;-67
2022/10/04 07:58:13;;;;;;;1.90;1.20;;;9.70;99.90;;;;;;6028528;29;20302;-67
2022/10/04 08:01:28;;;;;;;1.20;1.20;;;9.70;99.90;;;;;;6028483;29;20307;-67
2022/10/04 08:04:43;;;;;;;4.95;1.42;;;9.70;99.90;;;;;;6028370;29;20299;-67
2022/10/04 08:08:13;;;;;;;1.33;1.17;;;9.80;99.90;;;;;;6027797;29;20623;-67
2022/10/04 08:11:28;;;;;;;2.42;1.15;;;9.90;99.90;;;;;;6042612;29;20265;-67
2022/10/04 08:14:51;;;;;;;1.83;1.30;;;9.90;99.90;;;;;;6050993;29;20301;-67
2022/10/04 08:18:03;;;;;;;2.83;1.20;;;10.00;99.90;;;;;;6050898;29;20326;-67
2022/10/04 08:21:13;;;;;;;4.78;1.30;;;10.00;99.90;;;;;;6051398;29;20315;-66
2022/10/04 08:24:24;;;;;;;4.38;2.13;;;10.00;99.90;;;;;;6050746;29;20318;-67
2022/10/04 08:31:30;;;;;;;5.97;2.40;;;10.20;99.90;;;;;;6050861;29;20269;-68
2022/10/04 08:35:00;;;;;;;5.00;1.85;;;10.30;99.90;;;;;;6050624;29;20309;-67
2022/10/04 08:38:43;;;;;;;9.50;3.40;;;10.30;99.90;;;;;;6050412;29;20306;-67
2022/10/04 08:42:51;;;;;;;3.30;2.50;;;10.50;99.90;;;;;;6046964;29;20279;-67
2022/10/04 08:46:39;;;;;;;4.10;2.67;;;10.50;99.90;;;;;;6049842;29;20281;-67
2022/10/04 08:50:45;;;;;;;3.65;1.90;;;10.50;99.90;;;;;;6045195;29;20282;-66
2022/10/04 08:55:11;;;;;;;3.33;1.95;;;10.50;99.90;;;;;;6039761;29;20315;-66
2022/10/04 08:58:48;;;;;;;5.70;2.00;;;10.50;99.90;;;;;;6050031;29;20305;-67
2022/10/04 09:02:12;;;;;;;1.60;1.50;;;10.50;99.90;;;;;;6050165;29;20555;-67
2022/10/04 09:05:52;;;;;;;6.43;1.35;;;10.60;99.90;;;;;;6050245;29;20290;-67
2022/10/04 09:10:02;;;;;;;2.13;1.30;;;10.70;99.90;;;;;;6049884;29;20301;-68
2022/10/04 09:13:40;;;;;;;4.10;1.60;;;10.80;99.90;;;;;;6004641;29;20602;-67
2022/10/04 09:16:47;;;;;;;1.50;1.40;;;10.90;99.90;;;;;;6026911;29;20322;-68
2022/10/04 09:19:56;;;;;;;2.05;1.23;;;11.00;99.90;;;;;;6027103;29;20274;-67
2022/10/04 09:24:12;;;;;;;2.75;1.25;;;11.10;99.90;;;;;;6026717;29;20298;-67
2022/10/04 09:27:35;;;;;;;2.95;1.45;;;11.10;99.90;;;;;;6025942;29;20301;-67
2022/10/04 09:31:29;;;;;;;4.25;1.83;;;11.20;99.90;;;;;;6026157;29;20461;-66
2022/10/04 09:34:51;;;;;;;4.82;1.58;;;11.20;99.90;;;;;;6026344;29;20302;-66
2022/10/04 09:38:10;;;;;;;3.88;1.30;;;11.20;99.90;;;;;;6025982;29;20315;-66
2022/10/04 09:41:37;;;;;;;1.35;1.10;;;11.20;99.90;;;;;;6026719;29;20276;-67
2022/10/04 09:45:17;;;;;;;1.45;1.15;;;11.30;99.90;;;;;;6025692;29;20605;-66
2022/10/04 09:48:35;;;;;;;4.43;1.42;;;11.40;99.90;;;;;;6025864;29;20398;-67
2022/10/04 09:52:01;;;;;;;1.17;1.08;;;11.30;99.90;;;;;;6026555;29;20279;-66
2022/10/04 09:55:33;;;;;;;6.13;4.43;;;11.30;99.90;;;;;;6025448;29;20451;-67
2022/10/04 09:59:07;;;;;;;2.90;2.70;;;11.50;99.90;;;;;;6038652;29;20306;-66
2022/10/04 10:02:49;;;;;;;5.20;2.40;;;11.60;99.90;;;;;;6025475;29;20302;-67
2022/10/04 10:06:31;;;;;;;2.53;1.42;;;11.60;99.90;;;;;;6014826;29;20304;-67
2022/10/04 10:13:41;;;;;;;5.38;1.38;;;11.80;99.90;;;;;;6017745;29;20318;-67
2022/10/04 10:16:59;;;;;;;2.08;0.90;;;11.80;99.90;;;;;;6047963;29;20289;-67
2022/10/04 10:20:29;;;;;;;2.53;1.10;;;11.90;99.90;;;;;;6048788;29;20532;-66
2022/10/04 10:24:08;;;;;;;4.47;1.20;;;12.00;99.90;;;;;;6048019;29;20338;-67
2022/10/04 10:27:37;;;;;;;2.13;1.23;;;12.00;99.90;;;;;;6048169;29;20614;-67
2022/10/04 10:31:02;;;;;;;4.20;1.35;;;12.30;99.90;;;;;;6048169;29;20278;-67
2022/10/04 10:34:42;;;;;;;3.55;1.05;;;12.20;99.90;;;;;;6048021;29;20301;-66
2022/10/04 10:38:13;;;;;;;6.00;1.27;;;12.30;99.90;;;;;;6047991;29;20486;-66
2022/10/04 10:42:05;;;;;;;1.98;1.25;;;12.30;99.90;;;;;;6046778;29;20277;-67
2022/10/04 10:45:34;;;;;;;3.25;1.20;;;12.40;99.90;;;;;;6033996;29;20462;-67
2022/10/04 10:48:57;;;;;;;3.80;1.10;;;12.40;99.90;;;;;;6047548;29;20301;-67
2022/10/04 10:52:54;;;;;;;3.88;1.30;;;12.50;99.90;;;;;;6047539;29;21970;-67
2022/10/04 10:56:58;;;;;;;3.20;0.95;;;12.50;99.90;;;;;;6048014;29;20558;-67
2022/10/04 11:00:20;;;;;;;3.92;1.30;;;12.70;99.90;;;;;;6027064;29;20274;-68
2022/10/04 11:04:06;;;;;;;1.30;1.10;;;12.60;99.90;;;;;;6047491;29;20303;-67
2022/10/04 11:07:50;;;;;;;1.52;1.13;;;12.70;99.90;;;;;;6042484;29;20489;-67
2022/10/04 11:11:22;;;;;;;9.90;1.55;;;12.70;99.90;;;;;;6035839;29;20464;-67
2022/10/04 11:14:52;;;;;;;3.95;1.80;;;12.70;99.90;;;;;;6024396;29;20301;-67
2022/10/04 11:18:39;;;;;;;1.38;1.23;;;12.90;99.90;;;;;;6024117;29;20298;-68
2022/10/04 11:22:29;;;;;;;1.48;1.00;;;12.90;99.90;;;;;;6023938;29;20278;-68
2022/10/04 11:26:06;;;;;;;2.88;1.10;;;12.90;99.90;;;;;;6024737;29;20274;-67
2022/10/04 11:29:26;;;;;;;2.80;1.20;;;13.10;99.90;;;;;;6024212;29;20302;-67
2022/10/04 11:33:28;;;;;;;5.45;1.20;;;13.20;99.90;;;;;;6023798;29;20599;-67
2022/10/04 11:36:58;;;;;;;1.95;1.63;;;13.20;99.90;;;;;;6006271;29;20275;-67
2022/10/04 11:40:21;;;;;;;4.03;1.20;;;13.30;99.90;;;;;;6023228;29;20275;-68
2022/10/04 11:43:52;;;;;;;1.55;1.27;;;13.30;99.90;;;;;;6024008;29;20298;-68
2022/10/04 11:47:01;;;;;;;3.25;1.10;;;13.40;99.90;;;;;;6023979;29;20550;-68
2022/10/04 11:50:34;;;;;;;1.40;1.13;;;13.40;99.90;;;;;;6024500;29;20274;-67
2022/10/04 11:54:33;;;;;;;3.53;1.10;;;13.50;99.90;;;;;;6024006;29;20303;-67
2022/10/04 11:57:43;;;;;;;6.38;1.20;;;13.70;99.90;;;;;;6006912;29;20302;-67
2022/10/04 12:01:19;;;;;;;3.50;1.17;;;13.60;99.90;;;;;;6024480;29;20275;-67
2022/10/04 12:05:12;;;;;;;2.35;1.23;;;13.70;99.90;;;;;;6037958;29;20591;-68
2022/10/04 12:08:26;;;;;;;3.33;1.23;;;13.70;99.90;;;;;;6023564;29;20457;-68
2022/10/04 12:15:48;;;;;;;1.23;1.23;;;13.70;99.90;;;;;;6046083;29;20274;-66
2022/10/04 12:19:39;;;;;;;2.80;1.00;;;13.70;99.90;;;;;;6046206;29;20301;-66
2022/10/04 12:23:11;;;;;;;1.60;1.02;;;13.70;99.90;;;;;;6032845;29;20290;-68
2022/10/04 12:26:45;;;;;;;1.95;1.13;;;13.70;99.90;;;;;;6050884;29;20277;-67
2022/10/04 12:30:21;;;;;;;4.32;1.20;;;13.60;99.90;;;;;;6050386;29;20289;-68
2022/10/04 12:33:34;;;;;;;2.88;1.10;;;13.70;99.90;;;;;;6050204;29;20378;-68
2022/10/04 12:37:09;;;;;;;1.42;1.20;;;13.80;99.90;;;;;;6051130;29;20270;-68
2022/10/04 12:40:24;;;;;;;0.85;0.85;;;13.90;99.30;;;;;;6050234;29;20302;-66
2022/10/04 12:43:37;;;;;;;3.30;0.88;;;13.90;99.20;;;;;;6050353;29;20298;-67
2022/10/04 12:46:56;;;;;;;3.95;1.02;;;14.10;99.20;;;;;;6050861;29;20279;-67
2022/10/04 12:50:11;;;;;;;1.80;1.38;;;14.00;99.90;;;;;;6049917;29;20286;-67
2022/10/04 12:53:33;;;;;;;1.35;1.05;;;14.00;99.90;;;;;;6050008;29;20309;-67
2022/10/04 12:56:47;;;;;;;3.75;1.23;;;14.00;99.90;;;;;;6050242;29;20574;-67
2022/10/04 13:00:00;;;;;;;3.65;1.17;;;14.00;99.90;;;;;;6049904;29;20479;-67
2022/10/04 13:03:20;;;;;;;3.13;0.90;;;14.00;99.90;;;;;;6049734;29;20298;-67
2022/10/04 13:06:34;;;;;;;0.63;0.63;;;14.10;99.90;;;;;;6050048;29;20310;-67
2022/10/04 13:09:56;;;;;;;1.85;0.90;;;14.10;99.90;;;;;;6046855;29;20282;-67
2022/10/04 13:13:50;;;;;;;2.03;0.93;;;14.00;99.90;;;;;;6026692;29;20319;-67
2022/10/04 13:17:02;;;;;;;0.90;0.70;;;14.00;99.90;;;;;;6026434;29;20440;-67
2022/10/04 13:20:40;;;;;;;2.95;0.70;;;14.10;99.40;;;;;;6026666;29;20302;-66
2022/10/04 13:24:04;;;;;;;1.05;0.90;;;14.10;99.80;;;;;;6026567;29;20299;-66
2022/10/04 13:27:15;;;;;;;1.45;0.70;;;14.00;99.90;;;;;;6026107;29;20484;-67
2022/10/04 13:30:23;;;;;;;4.35;0.90;;;14.00;99.90;;;;;;6027152;29;20278;-67
2022/10/04 13:33:36;;;;;;;2.13;1.13;;;14.20;99.90;;;;;;6026146;29;20490;-67
2022/10/04 13:37:08;;;;;;;3.13;1.00;;;14.40;99.90;;;;;;6026521;29;20274;-67
2022/10/04 13:40:54;;;;;;;1.15;0.88;;;14.70;99.70;;;;;;6025421;29;20294;-66
2022/10/04 13:44:27;;;;;;;16.20;1.15;;;14.90;98.40;;;;;;6007572;29;20335;-66
2022/10/04 13:47:56;;;;;;;1.48;0.95;;;14.90;98.90;;;;;;6026069;29;20298;-66
2022/10/04 13:51:24;;;;;;;2.95;0.90;;;15.00;98.70;;;;;;6008487;29;20282;-67
2022/10/04 13:58:14;;;;;;;1.35;1.00;;;17.10;95.90;;;;;;6025394;29;20303;-67
2022/10/04 14:02:12;;;;;;;1.33;1.08;;;16.30;96.70;;;;;;6026364;29;20275;-67
2022/10/04 14:05:54;;;;;;;3.50;1.10;;;15.50;98.10;;;;;;6024971;29;20290;-67
2022/10/04 14:09:55;;;;;;;5.38;1.23;;;15.00;99.90;;;;;;6025487;29;20306;-67
2022/10/04 14:13:56;;;;;;;2.70;1.25;;;14.50;99.90;;;;;;6002745;29;20299;-67
2022/10/04 14:17:28;;;;;;;3.03;1.00;;;14.40;99.90;;;;;;5993285;29;20283;-67
2022/10/04 14:21:33;;;;;;;3.72;1.02;;;14.30;99.90;;;;;;6000431;29;20295;-67
2022/10/04 14:25:22;;;;;;;8.95;1.10;;;14.20;99.90;;;;;;6003409;29;20347;-67
2022/10/04 14:29:30;;;;;;;1.60;1.50;;;14.10;99.90;;;;;;6005007;29;20299;-67
2022/10/04 14:33:24;;;;;;;2.08;1.35;;;14.00;99.90;;;;;;5997613;29;20307;-67
2022/10/04 14:36:54;;;;;;;7.75;1.20;;;14.00;99.90;;;;;;6003054;29;20275;-67
2022/10/04 14:40:19;;;;;;;1.80;1.00;;;14.00;99.90;;;;;;6001550;29;20294;-66
2022/10/04 14:44:10;;;;;;;3.95;1.20;;;13.90;99.90;;;;;;6002273;29;20299;-66
2022/10/04 14:47:54;;;;;;;10.63;1.25;;;13.80;99.90;;;;;;6001505;29;20291;-67
2022/10/04 14:51:20;;;;;;;11.05;1.45;;;13.80;99.90;;;;;;6002685;29;20284;-66
2022/10/04 14:54:45;;;;;;;2.45;1.58;;;13.80;99.90;;;;;;6002078;29;20308;-66
2022/10/04 14:58:14;;;;;;;5.55;1.38;;;13.80;99.90;;;;;;6002213;29;20304;-67
2022/10/04 15:01:21;;;;;;;5.78;1.17;;;13.80;99.90;;;;;;6002592;29;20295;-68
2022/10/04 15:04:35;;;;;;;6.88;1.80;;;13.80;99.90;;;;;;6001998;29;20303;-66
2022/10/04 15:07:45;;;;;;;8.02;1.60;;;13.70;99.90;;;;;;6001994;29;20484;-68
2022/10/04 15:10:53;;;;;;;3.88;1.42;;;13.70;99.90;;;;;;6022772;29;20291;-67
2022/10/04 15:14:03;;;;;;;8.18;1.50;;;13.60;99.90;;;;;;6047418;29;20305;-66
2022/10/04 15:17:11;;;;;;;7.88;1.77;;;13.60;99.90;;;;;;6047365;29;20290;-68
2022/10/04 15:20:24;;;;;;;3.63;1.38;;;13.50;99.90;;;;;;6047500;29;20293;-67
2022/10/04 15:23:39;;;;;;;1.33;1.33;;;13.30;99.90;;;;;;6046758;29;20297;-67
2022/10/04 15:27:15;;;;;;;9.18;1.70;;;13.30;99.90;;;;;;6047139;29;20577;-67
2022/10/04 15:30:34;;;;;;;6.57;1.70;;;13.30;99.90;;;;;;6047545;29;20282;-68
2022/10/04 15:33:45;;;;;;;3.17;1.40;;;13.20;99.90;;;;;;6047032;29;20297;-67
2022/10/04 15:37:06;;;;;;;4.20;1.60;;;13.20;99.90;;;;;;6061451;29;20366;-67
2022/10/04 15:40:41;;;;;;;4.50;2.00;;;13.10;99.90;;;;;;6047345;29;20393;-67
2022/10/04 15:44:14;;;;;;;3.03;1.40;;;13.10;99.90;;;;;;6046658;29;20302;-67
2022/10/04 15:47:22;;;;;;;6.35;1.60;;;13.10;99.90;;;;;;6046813;29;20589;-67
2022/10/04 15:50:30;;;;;;;2.72;1.48;;;13.00;99.90;;;;;;6047346;29;20274;-67
2022/10/04 15:54:05;;;;;;;1.45;1.35;;;13.00;99.90;;;;;;6046991;29;20302;-67
2022/10/04 15:57:30;;;;;;;3.40;1.48;;;13.00;99.90;;;;;;6046924;29;20306;-67
2022/10/04 16:01:04;;;;;;;3.03;1.30;;;12.90;99.90;;;;;;6051129;29;20290;-67
2022/10/04 16:04:41;;;;;;;1.75;1.65;;;12.90;99.90;;;;;;6049968;29;20298;-67
2022/10/04 16:08:07;;;;;;;2.13;1.77;;;12.90;99.90;;;;;;6051168;29;20302;-68
2022/10/04 16:11:44;;;;;;;2.25;1.70;;;12.90;99.90;;;;;;6038353;29;20448;-67
2022/10/04 16:15:14;;;;;;;2.40;2.00;;;12.80;99.90;;;;;;6026181;29;20443;-67
2022/10/04 16:18:39;;;;;;;7.53;2.58;;;12.80;99.90;;;;;;6028009;29;20310;-67
2022/10/04 16:21:52;;;;;;;6.78;2.13;;;12.70;99.90;;;;;;6027973;29;20302;-68
2022/10/04 16:24:59;;;;;;;3.53;2.00;;;12.70;99.90;;;;;;6028320;29;20283;-68
2022/10/04 16:28:12;;;;;;;3.38;2.13;;;12.60;99.90;;;;;;6027951;29;20303;-68
2022/10/04 16:31:38;;;;;;;8.27;2.20;;;12.50;99.90;;;;;;6028292;29;20286;-67
2022/10/04 16:34:51;;;;;;;5.57;1.77;;;12.60;99.90;;;;;;6026231;29;20488;-68
2022/10/04 16:38:04;;;;;;;5.35;1.80;;;12.60;99.90;;;;;;6027588;29;20599;-68
2022/10/04 16:41:15;;;;;;;2.60;1.80;;;12.60;99.90;;;;;;6027810;29;20298;-67
2022/10/04 16:44:33;;;;;;;3.85;1.70;;;12.60;99.90;;;;;;6027669;29;20353;-67
2022/10/04 16:47:51;;;;;;;1.70;1.60;;;12.60;99.90;;;;;;6026966;29;20298;-67
2022/10/04 16:51:28;;;;;;;1.60;1.60;;;12.60;99.90;;;;;;6027761;29;20279;-67
2022/10/04 16:55:21;;;;;;;2.72;1.80;;;12.60;99.90;;;;;;6041131;29;20320;-67
2022/10/04 16:58:57;;;;;;;19.15;2.00;;;12.60;99.90;;;;;;6027040;29;20298;-68
2022/10/04 17:02:47;;;;;;;2.88;1.83;;;12.60;99.90;;;;;;6026995;29;20294;-67
2022/10/04 17:06:13;;;;;;;7.82;1.58;;;12.60;99.90;;;;;;6021265;29;20303;-69
2022/10/04 17:09:24;;;;;;;1.92;1.70;;;12.50;99.90;;;;;;6026309;29;20303;-68
2022/10/04 17:12:36;;;;;;;4.88;2.05;;;12.60;99.90;;;;;;6026850;29;20306;-67
2022/10/04 17:15:48;;;;;;;8.18;2.00;;;12.60;99.90;;;;;;6027061;29;20579;-67
2022/10/04 17:19:15;;;;;;;9.27;2.00;;;12.60;99.90;;;;;;6026744;29;20311;-67
2022/10/04 17:22:32;;;;;;;7.80;2.20;;;12.60;99.90;;;;;;6026329;29;20598;-67
2022/10/04 17:25:43;;;;;;;2.67;2.20;;;12.60;99.90;;;;;;6026813;29;20275;-67
2022/10/04 17:28:56;;;;;;;8.27;1.90;;;12.70;99.90;;;;;;6026629;29;20298;-67
2022/10/04 17:32:10;;;;;;;3.63;2.30;;;12.70;99.90;;;;;;6026077;29;20279;-67
2022/10/04 17:36:00;;;;;;;7.03;2.92;;;12.70;99.90;;;;;;6026877;29;20463;-67
2022/10/04 17:39:23;;;;;;;8.35;2.75;;;12.70;99.90;;;;;;6026379;29;20298;-67
2022/10/04 17:42:36;;;;;;;6.10;2.80;;;12.70;99.90;;;;;;6026425;29;20307;-67
2022/10/04 17:45:57;;;;;;;4.40;2.90;;;12.70;99.90;;;;;;6026782;29;20462;-68
2022/10/04 17:56:08;;;;;;;7.43;2.30;;;12.70;99.90;;;;;;6026498;29;20275;-67
2022/10/04 17:59:16;;;;;;;4.80;2.30;;;12.70;99.90;;;;;;6025897;29;20383;-67
2022/10/04 18:02:29;;;;;;;3.90;2.40;;;12.70;99.90;;;;;;6025289;29;20303;-67
2022/10/04 18:05:47;;;;;;;3.00;2.20;;;12.70;99.90;;;;;;6025828;29;20310;-67